sensor_id;sensor_type;location;lat;lon;timestamp;P1;durP1;ratioP1;P2;durP2;ratioP2
42194;SDS011;27863;49.440;11.102;2022-10-31T00:01:32;15.13;;;7.70;;
42194;SDS011;27863;49.440;11.102;2022-10-31T00:04:34;8.37;;;7.57;;
42194;SDS011;27863;49.440;11.102;2022-10-31T00:07:35;8.33;;;7.57;;
42194;SDS011;27863;49.440;11.102;2022-10-31T00:10:38;8.10;;;7.27;;
42194;SDS011;27863;49.440;11.102;2022-10-31T00:13:39;7.30;;;6.70;;
42194;SDS011;27863;49.440;11.102;2022-10-31T00:16:40;10.23;;;7.13;;
42194;SDS011;27863;49.440;11.102;2022-10-31T00:19:41;7.20;;;6.60;;
42194;SDS011;27863;49.440;11.102;2022-10-31T00:22:42;8.20;;;6.77;;
42194;SDS011;27863;49.440;11.102;2022-10-31T00:25:43;11.10;;;7.40;;
42194;SDS011;27863;49.440;11.102;2022-10-31T00:28:45;10.20;;;6.70;;
42194;SDS011;27863;49.440;11.102;2022-10-31T00:31:45;8.27;;;6.87;;
42194;SDS011;27863;49.440;11.102;2022-10-31T00:34:46;8.40;;;7.50;;
42194;SDS011;27863;49.440;11.102;2022-10-31T00:37:47;7.07;;;6.33;;
42194;SDS011;27863;49.440;11.102;2022-10-31T00:40:47;7.10;;;6.40;;
42194;SDS011;27863;49.440;11.102;2022-10-31T00:43:48;8.93;;;7.00;;
42194;SDS011;27863;49.440;11.102;2022-10-31T00:46:49;9.37;;;7.30;;
42194;SDS011;27863;49.440;11.102;2022-10-31T00:49:54;8.57;;;6.67;;
42194;SDS011;27863;49.440;11.102;2022-10-31T00:52:54;7.03;;;6.33;;
42194;SDS011;27863;49.440;11.102;2022-10-31T00:55:54;6.33;;;5.80;;
42194;SDS011;27863;49.440;11.102;2022-10-31T00:58:55;6.87;;;6.27;;
42194;SDS011;27863;49.440;11.102;2022-10-31T01:01:56;7.70;;;6.30;;
42194;SDS011;27863;49.440;11.102;2022-10-31T01:04:57;7.97;;;7.17;;
42194;SDS011;27863;49.440;11.102;2022-10-31T01:07:58;6.00;;;5.40;;
42194;SDS011;27863;49.440;11.102;2022-10-31T01:11:05;8.70;;;6.77;;
42194;SDS011;27863;49.440;11.102;2022-10-31T01:14:10;9.93;;;6.30;;
42194;SDS011;27863;49.440;11.102;2022-10-31T01:17:11;15.87;;;7.17;;
42194;SDS011;27863;49.440;11.102;2022-10-31T01:20:12;6.57;;;5.93;;
42194;SDS011;27863;49.440;11.102;2022-10-31T01:23:13;8.00;;;7.20;;
42194;SDS011;27863;49.440;11.102;2022-10-31T01:26:18;6.97;;;5.60;;
42194;SDS011;27863;49.440;11.102;2022-10-31T01:29:20;10.07;;;6.23;;
42194;SDS011;27863;49.440;11.102;2022-10-31T01:32:23;10.33;;;7.10;;
42194;SDS011;27863;49.440;11.102;2022-10-31T01:35:24;7.57;;;6.40;;
42194;SDS011;27863;49.440;11.102;2022-10-31T01:38:25;7.27;;;6.57;;
42194;SDS011;27863;49.440;11.102;2022-10-31T01:41:27;6.20;;;5.70;;
42194;SDS011;27863;49.440;11.102;2022-10-31T01:47:43;7.20;;;6.40;;
42194;SDS011;27863;49.440;11.102;2022-10-31T01:50:46;11.80;;;7.07;;
42194;SDS011;27863;49.440;11.102;2022-10-31T01:53:48;9.97;;;7.07;;
42194;SDS011;27863;49.440;11.102;2022-10-31T01:56:52;6.90;;;6.30;;
42194;SDS011;27863;49.440;11.102;2022-10-31T01:59:55;12.93;;;6.80;;
42194;SDS011;27863;49.440;11.102;2022-10-31T02:02:58;8.60;;;6.57;;
42194;SDS011;27863;49.440;11.102;2022-10-31T02:05:59;7.70;;;7.00;;
42194;SDS011;27863;49.440;11.102;2022-10-31T02:09:00;8.17;;;6.53;;
42194;SDS011;27863;49.440;11.102;2022-10-31T02:12:01;7.73;;;6.83;;
42194;SDS011;27863;49.440;11.102;2022-10-31T02:15:02;11.43;;;7.47;;
42194;SDS011;27863;49.440;11.102;2022-10-31T02:18:05;7.70;;;6.87;;
42194;SDS011;27863;49.440;11.102;2022-10-31T02:21:18;6.87;;;6.30;;
42194;SDS011;27863;49.440;11.102;2022-10-31T02:24:26;10.47;;;7.20;;
42194;SDS011;27863;49.440;11.102;2022-10-31T02:34:34;7.13;;;6.30;;
42194;SDS011;27863;49.440;11.102;2022-10-31T02:40:48;8.27;;;6.10;;
42194;SDS011;27863;49.440;11.102;2022-10-31T02:44:23;9.03;;;5.97;;
42194;SDS011;27863;49.440;11.102;2022-10-31T02:47:32;5.93;;;5.53;;
42194;SDS011;27863;49.440;11.102;2022-10-31T02:50:34;8.33;;;6.57;;
42194;SDS011;27863;49.440;11.102;2022-10-31T02:53:38;8.20;;;5.83;;
42194;SDS011;27863;49.440;11.102;2022-10-31T02:56:41;6.50;;;5.27;;
42194;SDS011;27863;49.440;11.102;2022-10-31T02:59:44;6.30;;;5.70;;
42194;SDS011;27863;49.440;11.102;2022-10-31T03:06:07;7.00;;;6.30;;
42194;SDS011;27863;49.440;11.102;2022-10-31T03:19:32;6.83;;;5.67;;
42194;SDS011;27863;49.440;11.102;2022-10-31T03:22:34;10.13;;;7.07;;
42194;SDS011;27863;49.440;11.102;2022-10-31T03:25:36;12.17;;;6.53;;
42194;SDS011;27863;49.440;11.102;2022-10-31T03:28:42;7.00;;;6.27;;
42194;SDS011;27863;49.440;11.102;2022-10-31T03:31:47;7.70;;;6.83;;
42194;SDS011;27863;49.440;11.102;2022-10-31T03:34:51;6.80;;;6.20;;
42194;SDS011;27863;49.440;11.102;2022-10-31T03:37:56;6.47;;;5.77;;
42194;SDS011;27863;49.440;11.102;2022-10-31T03:40:59;7.47;;;6.77;;
42194;SDS011;27863;49.440;11.102;2022-10-31T03:44:03;7.07;;;6.47;;
42194;SDS011;27863;49.440;11.102;2022-10-31T03:47:07;8.57;;;7.17;;
42194;SDS011;27863;49.440;11.102;2022-10-31T03:50:08;7.13;;;6.43;;
42194;SDS011;27863;49.440;11.102;2022-10-31T03:53:12;8.97;;;5.93;;
42194;SDS011;27863;49.440;11.102;2022-10-31T03:56:21;10.93;;;7.07;;
42194;SDS011;27863;49.440;11.102;2022-10-31T03:59:32;7.57;;;6.17;;
42194;SDS011;27863;49.440;11.102;2022-10-31T04:02:38;8.20;;;6.27;;
42194;SDS011;27863;49.440;11.102;2022-10-31T04:05:41;6.40;;;5.90;;
42194;SDS011;27863;49.440;11.102;2022-10-31T04:08:45;8.93;;;7.00;;
42194;SDS011;27863;49.440;11.102;2022-10-31T04:11:51;7.43;;;6.83;;
42194;SDS011;27863;49.440;11.102;2022-10-31T04:15:07;9.50;;;6.27;;
42194;SDS011;27863;49.440;11.102;2022-10-31T04:18:09;12.57;;;6.50;;
42194;SDS011;27863;49.440;11.102;2022-10-31T04:21:10;11.00;;;6.87;;
42194;SDS011;27863;49.440;11.102;2022-10-31T04:24:13;10.37;;;7.33;;
42194;SDS011;27863;49.440;11.102;2022-10-31T04:27:14;7.73;;;6.53;;
42194;SDS011;27863;49.440;11.102;2022-10-31T04:30:15;12.63;;;6.67;;
42194;SDS011;27863;49.440;11.102;2022-10-31T04:33:16;6.30;;;5.40;;
42194;SDS011;27863;49.440;11.102;2022-10-31T04:36:20;6.63;;;5.93;;
42194;SDS011;27863;49.440;11.102;2022-10-31T04:39:21;5.93;;;5.43;;
42194;SDS011;27863;49.440;11.102;2022-10-31T04:42:32;7.07;;;6.33;;
42194;SDS011;27863;49.440;11.102;2022-10-31T04:45:36;7.43;;;6.07;;
42194;SDS011;27863;49.440;11.102;2022-10-31T04:48:38;9.13;;;6.50;;
42194;SDS011;27863;49.440;11.102;2022-10-31T04:51:40;6.03;;;5.57;;
42194;SDS011;27863;49.440;11.102;2022-10-31T04:54:42;7.00;;;6.30;;
42194;SDS011;27863;49.440;11.102;2022-10-31T04:58:11;8.50;;;5.70;;
42194;SDS011;27863;49.440;11.102;2022-10-31T05:01:12;6.17;;;5.67;;
42194;SDS011;27863;49.440;11.102;2022-10-31T05:04:13;6.57;;;5.97;;
42194;SDS011;27863;49.440;11.102;2022-10-31T05:07:15;10.97;;;5.83;;
42194;SDS011;27863;49.440;11.102;2022-10-31T05:10:18;6.93;;;6.33;;
42194;SDS011;27863;49.440;11.102;2022-10-31T05:13:23;6.07;;;5.43;;
42194;SDS011;27863;49.440;11.102;2022-10-31T05:16:50;10.07;;;5.73;;
42194;SDS011;27863;49.440;11.102;2022-10-31T05:20:10;6.73;;;5.90;;
42194;SDS011;27863;49.440;11.102;2022-10-31T05:23:30;8.53;;;6.20;;
42194;SDS011;27863;49.440;11.102;2022-10-31T05:26:31;10.30;;;6.33;;
42194;SDS011;27863;49.440;11.102;2022-10-31T05:29:32;6.27;;;5.57;;
42194;SDS011;27863;49.440;11.102;2022-10-31T05:32:41;6.80;;;5.83;;
42194;SDS011;27863;49.440;11.102;2022-10-31T05:36:03;9.87;;;5.90;;
42194;SDS011;27863;49.440;11.102;2022-10-31T05:39:09;13.27;;;5.50;;
42194;SDS011;27863;49.440;11.102;2022-10-31T05:42:15;6.90;;;5.47;;
42194;SDS011;27863;49.440;11.102;2022-10-31T05:45:16;6.93;;;6.23;;
42194;SDS011;27863;49.440;11.102;2022-10-31T05:48:26;6.43;;;5.73;;
42194;SDS011;27863;49.440;11.102;2022-10-31T05:51:59;9.73;;;7.00;;
42194;SDS011;27863;49.440;11.102;2022-10-31T05:55:09;8.30;;;7.27;;
42194;SDS011;27863;49.440;11.102;2022-10-31T05:58:12;8.50;;;7.53;;
42194;SDS011;27863;49.440;11.102;2022-10-31T06:01:20;8.57;;;6.93;;
42194;SDS011;27863;49.440;11.102;2022-10-31T06:04:20;7.40;;;6.63;;
42194;SDS011;27863;49.440;11.102;2022-10-31T06:07:21;8.67;;;6.40;;
42194;SDS011;27863;49.440;11.102;2022-10-31T06:10:22;9.30;;;6.70;;
42194;SDS011;27863;49.440;11.102;2022-10-31T06:13:27;7.37;;;6.67;;
42194;SDS011;27863;49.440;11.102;2022-10-31T06:16:34;9.70;;;6.23;;
42194;SDS011;27863;49.440;11.102;2022-10-31T06:19:52;9.70;;;6.83;;
42194;SDS011;27863;49.440;11.102;2022-10-31T06:22:55;13.23;;;7.13;;
42194;SDS011;27863;49.440;11.102;2022-10-31T06:25:57;7.63;;;6.83;;
42194;SDS011;27863;49.440;11.102;2022-10-31T06:28:57;7.30;;;6.60;;
42194;SDS011;27863;49.440;11.102;2022-10-31T06:32:17;7.20;;;6.53;;
42194;SDS011;27863;49.440;11.102;2022-10-31T06:35:20;7.13;;;6.37;;
42194;SDS011;27863;49.440;11.102;2022-10-31T06:38:25;9.53;;;7.47;;
42194;SDS011;27863;49.440;11.102;2022-10-31T06:41:26;14.53;;;7.43;;
42194;SDS011;27863;49.440;11.102;2022-10-31T06:44:27;17.60;;;7.57;;
42194;SDS011;27863;49.440;11.102;2022-10-31T06:47:28;8.33;;;7.33;;
42194;SDS011;27863;49.440;11.102;2022-10-31T06:50:40;7.00;;;6.37;;
42194;SDS011;27863;49.440;11.102;2022-10-31T06:53:42;8.47;;;7.67;;
42194;SDS011;27863;49.440;11.102;2022-10-31T06:56:46;9.43;;;7.50;;
42194;SDS011;27863;49.440;11.102;2022-10-31T06:59:47;8.07;;;7.13;;
42194;SDS011;27863;49.440;11.102;2022-10-31T07:02:57;10.13;;;7.10;;
42194;SDS011;27863;49.440;11.102;2022-10-31T07:05:59;9.33;;;6.83;;
42194;SDS011;27863;49.440;11.102;2022-10-31T07:08:59;6.63;;;6.00;;
42194;SDS011;27863;49.440;11.102;2022-10-31T07:12:00;8.55;;;6.72;;
42194;SDS011;27863;49.440;11.102;2022-10-31T07:15:03;7.20;;;6.50;;
42194;SDS011;27863;49.440;11.102;2022-10-31T07:18:06;7.82;;;7.10;;
42194;SDS011;27863;49.440;11.102;2022-10-31T07:21:08;7.13;;;6.40;;
42194;SDS011;27863;49.440;11.102;2022-10-31T07:24:08;7.65;;;6.95;;
42194;SDS011;27863;49.440;11.102;2022-10-31T07:27:15;9.20;;;5.60;;
42194;SDS011;27863;49.440;11.102;2022-10-31T07:30:18;9.35;;;6.55;;
42194;SDS011;27863;49.440;11.102;2022-10-31T07:33:20;6.68;;;5.90;;
42194;SDS011;27863;49.440;11.102;2022-10-31T07:36:41;8.95;;;6.20;;
42194;SDS011;27863;49.440;11.102;2022-10-31T07:39:41;10.55;;;5.85;;
42194;SDS011;27863;49.440;11.102;2022-10-31T07:42:42;6.10;;;5.50;;
42194;SDS011;27863;49.440;11.102;2022-10-31T07:46:06;6.38;;;5.78;;
42194;SDS011;27863;49.440;11.102;2022-10-31T07:49:25;7.88;;;7.18;;
42194;SDS011;27863;49.440;11.102;2022-10-31T07:52:44;6.85;;;6.25;;
42194;SDS011;27863;49.440;11.102;2022-10-31T07:56:21;7.32;;;6.63;;
42194;SDS011;27863;49.440;11.102;2022-10-31T07:59:21;6.63;;;6.03;;
42194;SDS011;27863;49.440;11.102;2022-10-31T08:02:22;7.32;;;6.32;;
42194;SDS011;27863;49.440;11.102;2022-10-31T08:05:42;17.00;;;6.85;;
42194;SDS011;27863;49.440;11.102;2022-10-31T08:09:14;6.57;;;5.97;;
42194;SDS011;27863;49.440;11.102;2022-10-31T08:12:17;7.97;;;5.70;;
42194;SDS011;27863;49.440;11.102;2022-10-31T08:15:18;7.68;;;6.93;;
42194;SDS011;27863;49.440;11.102;2022-10-31T08:18:19;6.80;;;5.88;;
42194;SDS011;27863;49.440;11.102;2022-10-31T08:21:22;7.10;;;6.40;;
42194;SDS011;27863;49.440;11.102;2022-10-31T08:24:26;14.15;;;6.47;;
42194;SDS011;27863;49.440;11.102;2022-10-31T08:27:28;7.80;;;6.20;;
42194;SDS011;27863;49.440;11.102;2022-10-31T08:30:32;7.13;;;6.18;;
42194;SDS011;27863;49.440;11.102;2022-10-31T08:33:53;7.65;;;6.88;;
42194;SDS011;27863;49.440;11.102;2022-10-31T08:37:12;7.97;;;7.22;;
42194;SDS011;27863;49.440;11.102;2022-10-31T08:40:17;7.15;;;6.45;;
42194;SDS011;27863;49.440;11.102;2022-10-31T08:43:18;8.18;;;7.32;;
42194;SDS011;27863;49.440;11.102;2022-10-31T08:46:19;7.68;;;6.85;;
42194;SDS011;27863;49.440;11.102;2022-10-31T08:49:19;7.38;;;6.68;;
42194;SDS011;27863;49.440;11.102;2022-10-31T08:52:22;7.93;;;7.13;;
42194;SDS011;27863;49.440;11.102;2022-10-31T08:55:24;8.52;;;7.68;;
42194;SDS011;27863;49.440;11.102;2022-10-31T08:58:55;8.95;;;7.15;;
42194;SDS011;27863;49.440;11.102;2022-10-31T09:02:07;9.73;;;7.95;;
42194;SDS011;27863;49.440;11.102;2022-10-31T09:05:09;8.80;;;7.85;;
42194;SDS011;27863;49.440;11.102;2022-10-31T09:08:10;8.52;;;7.60;;
42194;SDS011;27863;49.440;11.102;2022-10-31T09:11:11;8.38;;;7.68;;
42194;SDS011;27863;49.440;11.102;2022-10-31T09:14:50;9.30;;;8.55;;
42194;SDS011;27863;49.440;11.102;2022-10-31T09:17:56;8.55;;;7.85;;
42194;SDS011;27863;49.440;11.102;2022-10-31T09:21:13;7.93;;;7.22;;
42194;SDS011;27863;49.440;11.102;2022-10-31T09:24:14;9.90;;;9.10;;
42194;SDS011;27863;49.440;11.102;2022-10-31T09:27:16;9.05;;;8.23;;
42194;SDS011;27863;49.440;11.102;2022-10-31T09:30:19;9.65;;;7.60;;
42194;SDS011;27863;49.440;11.102;2022-10-31T09:33:23;8.75;;;7.85;;
42194;SDS011;27863;49.440;11.102;2022-10-31T09:36:39;9.15;;;8.35;;
42194;SDS011;27863;49.440;11.102;2022-10-31T09:39:47;11.38;;;8.35;;
42194;SDS011;27863;49.440;11.102;2022-10-31T09:53:16;8.95;;;7.43;;
42194;SDS011;27863;49.440;11.102;2022-10-31T09:56:24;8.90;;;8.00;;
42194;SDS011;27863;49.440;11.102;2022-10-31T09:59:36;8.50;;;7.10;;
42194;SDS011;27863;49.440;11.102;2022-10-31T10:02:39;11.10;;;8.25;;
42194;SDS011;27863;49.440;11.102;2022-10-31T10:05:58;8.65;;;7.78;;
42194;SDS011;27863;49.440;11.102;2022-10-31T10:09:30;11.90;;;8.10;;
42194;SDS011;27863;49.440;11.102;2022-10-31T10:23:01;8.40;;;6.10;;
42194;SDS011;27863;49.440;11.102;2022-10-31T10:26:17;9.15;;;6.97;;
42194;SDS011;27863;49.440;11.102;2022-10-31T10:29:37;11.25;;;7.20;;
42194;SDS011;27863;49.440;11.102;2022-10-31T10:32:43;8.02;;;7.20;;
42194;SDS011;27863;49.440;11.102;2022-10-31T10:35:49;8.30;;;6.53;;
42194;SDS011;27863;49.440;11.102;2022-10-31T10:38:58;8.70;;;7.88;;
42194;SDS011;27863;49.440;11.102;2022-10-31T10:42:01;12.13;;;5.97;;
42194;SDS011;27863;49.440;11.102;2022-10-31T10:45:20;10.15;;;7.05;;
42194;SDS011;27863;49.440;11.102;2022-10-31T10:48:48;10.50;;;7.43;;
42194;SDS011;27863;49.440;11.102;2022-10-31T10:58:20;8.02;;;6.80;;
42194;SDS011;27863;49.440;11.102;2022-10-31T11:01:21;7.88;;;6.97;;
42194;SDS011;27863;49.440;11.102;2022-10-31T11:07:40;11.90;;;8.43;;
42194;SDS011;27863;49.440;11.102;2022-10-31T11:10:40;13.75;;;6.88;;
42194;SDS011;27863;49.440;11.102;2022-10-31T11:13:41;8.60;;;7.38;;
42194;SDS011;27863;49.440;11.102;2022-10-31T11:17:27;7.13;;;6.45;;
42194;SDS011;27863;49.440;11.102;2022-10-31T11:26:20;7.80;;;7.00;;
42194;SDS011;27863;49.440;11.102;2022-10-31T11:32:26;9.55;;;7.82;;
42194;SDS011;27863;49.440;11.102;2022-10-31T11:35:26;7.53;;;6.25;;
42194;SDS011;27863;49.440;11.102;2022-10-31T11:38:35;7.65;;;6.35;;
42194;SDS011;27863;49.440;11.102;2022-10-31T11:41:40;7.40;;;6.70;;
42194;SDS011;27863;49.440;11.102;2022-10-31T11:44:44;8.68;;;7.88;;
42194;SDS011;27863;49.440;11.102;2022-10-31T11:47:46;22.25;;;9.57;;
42194;SDS011;27863;49.440;11.102;2022-10-31T11:50:49;11.63;;;6.88;;
42194;SDS011;27863;49.440;11.102;2022-10-31T11:53:56;6.75;;;6.15;;
42194;SDS011;27863;49.440;11.102;2022-10-31T11:56:58;6.80;;;5.72;;
42194;SDS011;27863;49.440;11.102;2022-10-31T12:00:00;7.75;;;6.13;;
42194;SDS011;27863;49.440;11.102;2022-10-31T12:09:28;8.60;;;6.68;;
42194;SDS011;27863;49.440;11.102;2022-10-31T12:16:07;12.52;;;6.43;;
42194;SDS011;27863;49.440;11.102;2022-10-31T12:19:13;8.40;;;7.57;;
42194;SDS011;27863;49.440;11.102;2022-10-31T12:32:29;6.47;;;4.88;;
42194;SDS011;27863;49.440;11.102;2022-10-31T12:35:43;8.55;;;6.00;;
42194;SDS011;27863;49.440;11.102;2022-10-31T12:42:07;10.65;;;8.73;;
42194;SDS011;27863;49.440;11.102;2022-10-31T12:45:29;13.38;;;8.20;;
42194;SDS011;27863;49.440;11.102;2022-10-31T12:58:59;7.55;;;6.80;;
42194;SDS011;27863;49.440;11.102;2022-10-31T13:05:40;8.98;;;7.72;;
42194;SDS011;27863;49.440;11.102;2022-10-31T13:08:44;8.52;;;7.82;;
42194;SDS011;27863;49.440;11.102;2022-10-31T13:11:50;9.32;;;7.90;;
42194;SDS011;27863;49.440;11.102;2022-10-31T13:14:59;8.40;;;7.70;;
42194;SDS011;27863;49.440;11.102;2022-10-31T13:18:05;9.20;;;7.55;;
42194;SDS011;27863;49.440;11.102;2022-10-31T13:21:12;8.93;;;8.13;;
42194;SDS011;27863;49.440;11.102;2022-10-31T13:24:23;8.43;;;7.25;;
42194;SDS011;27863;49.440;11.102;2022-10-31T13:27:33;8.77;;;7.80;;
42194;SDS011;27863;49.440;11.102;2022-10-31T13:30:55;10.80;;;8.50;;
42194;SDS011;27863;49.440;11.102;2022-10-31T13:33:57;8.40;;;7.60;;
42194;SDS011;27863;49.440;11.102;2022-10-31T13:40:50;10.85;;;7.78;;
42194;SDS011;27863;49.440;11.102;2022-10-31T13:47:03;8.80;;;8.07;;
42194;SDS011;27863;49.440;11.102;2022-10-31T13:50:21;11.05;;;8.20;;
42194;SDS011;27863;49.440;11.102;2022-10-31T13:53:37;9.02;;;8.10;;
42194;SDS011;27863;49.440;11.102;2022-10-31T13:56:58;11.27;;;7.55;;
42194;SDS011;27863;49.440;11.102;2022-10-31T14:00:00;7.97;;;7.18;;
42194;SDS011;27863;49.440;11.102;2022-10-31T14:03:18;8.23;;;7.50;;
42194;SDS011;27863;49.440;11.102;2022-10-31T14:06:19;8.80;;;7.93;;
42194;SDS011;27863;49.440;11.102;2022-10-31T14:09:21;13.43;;;11.63;;
42194;SDS011;27863;49.440;11.102;2022-10-31T14:12:24;8.75;;;7.95;;
42194;SDS011;27863;49.440;11.102;2022-10-31T14:15:28;7.70;;;7.00;;
42194;SDS011;27863;49.440;11.102;2022-10-31T14:18:39;9.65;;;8.88;;
42194;SDS011;27863;49.440;11.102;2022-10-31T14:21:42;10.55;;;7.75;;
42194;SDS011;27863;49.440;11.102;2022-10-31T14:24:44;9.10;;;8.25;;
42194;SDS011;27863;49.440;11.102;2022-10-31T14:27:45;9.38;;;8.57;;
42194;SDS011;27863;49.440;11.102;2022-10-31T14:30:54;9.55;;;8.70;;
42194;SDS011;27863;49.440;11.102;2022-10-31T14:33:56;8.80;;;7.90;;
42194;SDS011;27863;49.440;11.102;2022-10-31T14:53:14;12.02;;;9.23;;
42194;SDS011;27863;49.440;11.102;2022-10-31T14:56:26;13.30;;;8.73;;
42194;SDS011;27863;49.440;11.102;2022-10-31T14:59:28;10.52;;;8.77;;
42194;SDS011;27863;49.440;11.102;2022-10-31T15:02:38;9.35;;;8.38;;
42194;SDS011;27863;49.440;11.102;2022-10-31T15:06:01;12.70;;;9.48;;
42194;SDS011;27863;49.440;11.102;2022-10-31T15:09:05;9.73;;;8.90;;
42194;SDS011;27863;49.440;11.102;2022-10-31T15:15:26;11.55;;;9.20;;
42194;SDS011;27863;49.440;11.102;2022-10-31T15:18:27;9.25;;;8.35;;
42194;SDS011;27863;49.440;11.102;2022-10-31T15:21:28;11.30;;;9.13;;
42194;SDS011;27863;49.440;11.102;2022-10-31T15:24:38;9.27;;;8.20;;
42194;SDS011;27863;49.440;11.102;2022-10-31T15:27:39;8.73;;;7.63;;
42194;SDS011;27863;49.440;11.102;2022-10-31T15:30:48;10.85;;;9.27;;
42194;SDS011;27863;49.440;11.102;2022-10-31T15:33:50;11.90;;;7.97;;
42194;SDS011;27863;49.440;11.102;2022-10-31T15:36:51;11.07;;;9.70;;
42194;SDS011;27863;49.440;11.102;2022-10-31T15:39:51;9.57;;;8.57;;
42194;SDS011;27863;49.440;11.102;2022-10-31T15:43:03;8.57;;;6.50;;
42194;SDS011;27863;49.440;11.102;2022-10-31T15:46:07;8.13;;;7.35;;
42194;SDS011;27863;49.440;11.102;2022-10-31T15:49:15;10.10;;;8.90;;
42194;SDS011;27863;49.440;11.102;2022-10-31T15:52:46;10.18;;;8.50;;
42194;SDS011;27863;49.440;11.102;2022-10-31T15:55:54;9.77;;;8.88;;
42194;SDS011;27863;49.440;11.102;2022-10-31T15:58:57;12.73;;;8.82;;
42194;SDS011;27863;49.440;11.102;2022-10-31T16:01:59;9.52;;;8.63;;
42194;SDS011;27863;49.440;11.102;2022-10-31T16:05:16;8.50;;;6.95;;
42194;SDS011;27863;49.440;11.102;2022-10-31T16:08:36;8.68;;;7.82;;
42194;SDS011;27863;49.440;11.102;2022-10-31T16:11:37;12.52;;;8.95;;
42194;SDS011;27863;49.440;11.102;2022-10-31T16:14:38;9.20;;;8.10;;
42194;SDS011;27863;49.440;11.102;2022-10-31T16:17:40;6.60;;;5.90;;
42194;SDS011;27863;49.440;11.102;2022-10-31T16:20:47;6.25;;;5.55;;
42194;SDS011;27863;49.440;11.102;2022-10-31T16:23:51;7.80;;;6.20;;
42194;SDS011;27863;49.440;11.102;2022-10-31T16:27:06;8.27;;;5.88;;
42194;SDS011;27863;49.440;11.102;2022-10-31T16:30:37;5.63;;;5.07;;
42194;SDS011;27863;49.440;11.102;2022-10-31T16:33:39;6.00;;;5.38;;
42194;SDS011;27863;49.440;11.102;2022-10-31T16:36:40;6.78;;;6.00;;
42194;SDS011;27863;49.440;11.102;2022-10-31T16:39:41;6.47;;;5.85;;
42194;SDS011;27863;49.440;11.102;2022-10-31T16:42:42;6.00;;;5.38;;
42194;SDS011;27863;49.440;11.102;2022-10-31T16:45:47;9.60;;;4.93;;
42194;SDS011;27863;49.440;11.102;2022-10-31T16:48:49;8.15;;;5.00;;
42194;SDS011;27863;49.440;11.102;2022-10-31T16:51:50;7.43;;;5.15;;
42194;SDS011;27863;49.440;11.102;2022-10-31T16:54:50;6.82;;;5.30;;
42194;SDS011;27863;49.440;11.102;2022-10-31T16:57:52;8.98;;;5.35;;
42194;SDS011;27863;49.440;11.102;2022-10-31T17:00:54;7.35;;;6.60;;
42194;SDS011;27863;49.440;11.102;2022-10-31T17:03:54;7.72;;;5.65;;
42194;SDS011;27863;49.440;11.102;2022-10-31T17:06:55;6.18;;;5.25;;
42194;SDS011;27863;49.440;11.102;2022-10-31T17:09:55;6.85;;;6.20;;
42194;SDS011;27863;49.440;11.102;2022-10-31T17:12:56;6.22;;;5.50;;
42194;SDS011;27863;49.440;11.102;2022-10-31T17:15:58;5.75;;;4.82;;
42194;SDS011;27863;49.440;11.102;2022-10-31T17:18:59;5.72;;;5.13;;
42194;SDS011;27863;49.440;11.102;2022-10-31T17:22:00;16.13;;;5.63;;
42194;SDS011;27863;49.440;11.102;2022-10-31T17:25:01;6.45;;;5.78;;
42194;SDS011;27863;49.440;11.102;2022-10-31T17:28:02;6.50;;;5.90;;
42194;SDS011;27863;49.440;11.102;2022-10-31T17:31:02;9.60;;;5.65;;
42194;SDS011;27863;49.440;11.102;2022-10-31T17:34:03;7.05;;;6.28;;
42194;SDS011;27863;49.440;11.102;2022-10-31T17:37:05;7.93;;;6.03;;
42194;SDS011;27863;49.440;11.102;2022-10-31T17:40:06;7.32;;;6.63;;
42194;SDS011;27863;49.440;11.102;2022-10-31T17:43:08;11.57;;;7.45;;
42194;SDS011;27863;49.440;11.102;2022-10-31T17:46:09;7.20;;;6.35;;
42194;SDS011;27863;49.440;11.102;2022-10-31T17:49:10;11.20;;;7.25;;
42194;SDS011;27863;49.440;11.102;2022-10-31T17:52:11;11.63;;;7.97;;
42194;SDS011;27863;49.440;11.102;2022-10-31T17:55:11;10.90;;;8.18;;
42194;SDS011;27863;49.440;11.102;2022-10-31T17:58:12;13.45;;;8.13;;
42194;SDS011;27863;49.440;11.102;2022-10-31T18:01:15;17.95;;;8.88;;
42194;SDS011;27863;49.440;11.102;2022-10-31T18:04:17;10.52;;;8.18;;
42194;SDS011;27863;49.440;11.102;2022-10-31T18:07:18;9.40;;;8.43;;
42194;SDS011;27863;49.440;11.102;2022-10-31T18:10:19;12.60;;;8.32;;
42194;SDS011;27863;49.440;11.102;2022-10-31T18:13:19;10.07;;;8.55;;
42194;SDS011;27863;49.440;11.102;2022-10-31T18:16:21;10.90;;;8.45;;
42194;SDS011;27863;49.440;11.102;2022-10-31T18:19:21;10.68;;;7.28;;
42194;SDS011;27863;49.440;11.102;2022-10-31T18:22:23;12.18;;;6.82;;
42194;SDS011;27863;49.440;11.102;2022-10-31T18:25:24;6.80;;;5.95;;
42194;SDS011;27863;49.440;11.102;2022-10-31T18:28:24;7.63;;;6.00;;
42194;SDS011;27863;49.440;11.102;2022-10-31T18:31:25;9.77;;;5.93;;
42194;SDS011;27863;49.440;11.102;2022-10-31T18:34:25;8.82;;;6.30;;
42194;SDS011;27863;49.440;11.102;2022-10-31T18:37:27;9.00;;;6.47;;
42194;SDS011;27863;49.440;11.102;2022-10-31T18:40:27;9.02;;;5.63;;
42194;SDS011;27863;49.440;11.102;2022-10-31T18:43:28;17.13;;;6.63;;
42194;SDS011;27863;49.440;11.102;2022-10-31T18:46:28;7.00;;;5.07;;
42194;SDS011;27863;49.440;11.102;2022-10-31T18:49:29;8.80;;;6.87;;
42194;SDS011;27863;49.440;11.102;2022-10-31T18:52:31;12.27;;;6.37;;
42194;SDS011;27863;49.440;11.102;2022-10-31T18:55:32;7.97;;;6.03;;
42194;SDS011;27863;49.440;11.102;2022-10-31T18:58:32;6.40;;;5.70;;
42194;SDS011;27863;49.440;11.102;2022-10-31T19:01:33;7.07;;;6.07;;
42194;SDS011;27863;49.440;11.102;2022-10-31T19:04:33;8.77;;;5.63;;
42194;SDS011;27863;49.440;11.102;2022-10-31T19:07:35;10.03;;;4.93;;
42194;SDS011;27863;49.440;11.102;2022-10-31T19:10:36;6.97;;;4.50;;
42194;SDS011;27863;49.440;11.102;2022-10-31T19:13:38;9.63;;;5.27;;
42194;SDS011;27863;49.440;11.102;2022-10-31T19:16:40;7.73;;;4.83;;
42194;SDS011;27863;49.440;11.102;2022-10-31T19:19:40;5.53;;;5.00;;
42194;SDS011;27863;49.440;11.102;2022-10-31T19:22:43;6.60;;;5.23;;
42194;SDS011;27863;49.440;11.102;2022-10-31T19:25:44;7.57;;;4.93;;
42194;SDS011;27863;49.440;11.102;2022-10-31T19:28:44;6.97;;;4.97;;
42194;SDS011;27863;49.440;11.102;2022-10-31T19:31:45;9.30;;;5.17;;
42194;SDS011;27863;49.440;11.102;2022-10-31T19:34:47;7.67;;;4.17;;
42194;SDS011;27863;49.440;11.102;2022-10-31T19:37:47;6.63;;;5.40;;
42194;SDS011;27863;49.440;11.102;2022-10-31T19:40:55;8.23;;;5.43;;
42194;SDS011;27863;49.440;11.102;2022-10-31T19:43:59;7.93;;;5.07;;
42194;SDS011;27863;49.440;11.102;2022-10-31T19:47:00;15.07;;;5.57;;
42194;SDS011;27863;49.440;11.102;2022-10-31T19:50:00;9.10;;;5.10;;
42194;SDS011;27863;49.440;11.102;2022-10-31T19:53:05;6.27;;;5.47;;
42194;SDS011;27863;49.440;11.102;2022-10-31T19:56:24;6.00;;;5.43;;
42194;SDS011;27863;49.440;11.102;2022-10-31T19:59:25;10.73;;;5.63;;
42194;SDS011;27863;49.440;11.102;2022-10-31T20:02:26;7.03;;;5.47;;
42194;SDS011;27863;49.440;11.102;2022-10-31T20:05:26;8.70;;;6.60;;
42194;SDS011;27863;49.440;11.102;2022-10-31T20:08:26;7.33;;;5.80;;
42194;SDS011;27863;49.440;11.102;2022-10-31T20:11:28;7.93;;;6.70;;
42194;SDS011;27863;49.440;11.102;2022-10-31T20:14:28;7.67;;;6.60;;
42194;SDS011;27863;49.440;11.102;2022-10-31T20:17:29;10.07;;;6.10;;
42194;SDS011;27863;49.440;11.102;2022-10-31T20:20:30;8.40;;;5.10;;
42194;SDS011;27863;49.440;11.102;2022-10-31T20:23:31;8.83;;;7.03;;
42194;SDS011;27863;49.440;11.102;2022-10-31T20:26:33;8.53;;;7.37;;